sensor_id;sensor_type;location;lat;lon;timestamp;temperature;humidity
57857;DHT22;43683;48.650;9.290;2023-12-28T00:00:14;1.10;92.00
57857;DHT22;43683;48.650;9.290;2023-12-28T00:02:40;1.10;92.00
57857;DHT22;43683;48.650;9.290;2023-12-28T00:05:06;1.00;92.10
57857;DHT22;43683;48.650;9.290;2023-12-28T00:07:32;1.00;92.20
57857;DHT22;43683;48.650;9.290;2023-12-28T00:09:57;0.90;92.20
57857;DHT22;43683;48.650;9.290;2023-12-28T00:12:23;0.80;92.30
57857;DHT22;43683;48.650;9.290;2023-12-28T00:14:48;0.90;92.40
57857;DHT22;43683;48.650;9.290;2023-12-28T00:17:14;0.90;92.40
57857;DHT22;43683;48.650;9.290;2023-12-28T00:19:40;1.10;92.30
57857;DHT22;43683;48.650;9.290;2023-12-28T00:22:05;1.20;92.10
57857;DHT22;43683;48.650;9.290;2023-12-28T00:24:31;1.30;92.00
57857;DHT22;43683;48.650;9.290;2023-12-28T00:26:56;1.40;91.90
57857;DHT22;43683;48.650;9.290;2023-12-28T00:29:22;1.40;91.90
57857;DHT22;43683;48.650;9.290;2023-12-28T00:31:47;1.40;91.70
57857;DHT22;43683;48.650;9.290;2023-12-28T00:34:13;1.40;91.70
57857;DHT22;43683;48.650;9.290;2023-12-28T00:36:38;1.20;91.80
57857;DHT22;43683;48.650;9.290;2023-12-28T00:39:04;1.10;91.90
57857;DHT22;43683;48.650;9.290;2023-12-28T00:41:29;1.10;92.00
57857;DHT22;43683;48.650;9.290;2023-12-28T00:43:55;1.10;92.00
57857;DHT22;43683;48.650;9.290;2023-12-28T00:46:20;1.20;91.80
57857;DHT22;43683;48.650;9.290;2023-12-28T00:48:46;1.20;91.70
57857;DHT22;43683;48.650;9.290;2023-12-28T00:51:12;1.20;91.60
57857;DHT22;43683;48.650;9.290;2023-12-28T00:53:37;1.20;91.60
57857;DHT22;43683;48.650;9.290;2023-12-28T00:56:03;1.20;91.60
57857;DHT22;43683;48.650;9.290;2023-12-28T00:58:28;1.20;91.60
57857;DHT22;43683;48.650;9.290;2023-12-28T01:00:54;1.30;91.50
57857;DHT22;43683;48.650;9.290;2023-12-28T01:03:22;1.30;91.50
57857;DHT22;43683;48.650;9.290;2023-12-28T01:05:47;1.20;91.50
57857;DHT22;43683;48.650;9.290;2023-12-28T01:08:16;1.20;91.40
57857;DHT22;43683;48.650;9.290;2023-12-28T01:10:42;1.30;91.30
57857;DHT22;43683;48.650;9.290;2023-12-28T01:13:07;1.30;91.60
57857;DHT22;43683;48.650;9.290;2023-12-28T01:15:33;1.30;91.30
57857;DHT22;43683;48.650;9.290;2023-12-28T01:17:58;1.30;91.40
57857;DHT22;43683;48.650;9.290;2023-12-28T01:20:24;1.30;91.30
57857;DHT22;43683;48.650;9.290;2023-12-28T01:22:49;1.20;91.40
57857;DHT22;43683;48.650;9.290;2023-12-28T01:25:15;1.00;91.50
57857;DHT22;43683;48.650;9.290;2023-12-28T01:27:41;0.90;91.70
57857;DHT22;43683;48.650;9.290;2023-12-28T01:30:07;0.70;91.90
57857;DHT22;43683;48.650;9.290;2023-12-28T01:32:32;0.70;92.00
57857;DHT22;43683;48.650;9.290;2023-12-28T01:34:58;0.80;92.00
57857;DHT22;43683;48.650;9.290;2023-12-28T01:37:24;0.90;91.80
57857;DHT22;43683;48.650;9.290;2023-12-28T01:39:49;0.90;91.60
57857;DHT22;43683;48.650;9.290;2023-12-28T01:42:15;0.90;91.60
57857;DHT22;43683;48.650;9.290;2023-12-28T01:44:40;0.80;91.60
57857;DHT22;43683;48.650;9.290;2023-12-28T01:47:06;0.80;91.70
57857;DHT22;43683;48.650;9.290;2023-12-28T01:49:33;0.80;91.60
57857;DHT22;43683;48.650;9.290;2023-12-28T01:52:01;0.90;91.60
57857;DHT22;43683;48.650;9.290;2023-12-28T01:54:27;0.90;91.50
57857;DHT22;43683;48.650;9.290;2023-12-28T01:56:54;1.00;91.50
57857;DHT22;43683;48.650;9.290;2023-12-28T01:59:20;0.90;91.40
57857;DHT22;43683;48.650;9.290;2023-12-28T02:01:46;0.90;91.40
57857;DHT22;43683;48.650;9.290;2023-12-28T02:04:11;0.90;91.40
57857;DHT22;43683;48.650;9.290;2023-12-28T02:06:37;0.90;91.50
57857;DHT22;43683;48.650;9.290;2023-12-28T02:09:03;0.80;91.50
57857;DHT22;43683;48.650;9.290;2023-12-28T02:11:29;0.80;91.60
57857;DHT22;43683;48.650;9.290;2023-12-28T02:13:54;0.70;91.70
57857;DHT22;43683;48.650;9.290;2023-12-28T02:16:30;0.70;91.80
57857;DHT22;43683;48.650;9.290;2023-12-28T02:19:00;0.80;91.70
57857;DHT22;43683;48.650;9.290;2023-12-28T02:21:31;0.70;91.60
57857;DHT22;43683;48.650;9.290;2023-12-28T02:23:56;0.70;91.60
57857;DHT22;43683;48.650;9.290;2023-12-28T02:26:22;0.70;91.60
57857;DHT22;43683;48.650;9.290;2023-12-28T02:28:48;0.70;91.70
57857;DHT22;43683;48.650;9.290;2023-12-28T02:31:31;0.60;91.70
57857;DHT22;43683;48.650;9.290;2023-12-28T02:34:01;0.50;91.80
57857;DHT22;43683;48.650;9.290;2023-12-28T02:36:29;0.50;91.90
57857;DHT22;43683;48.650;9.290;2023-12-28T02:38:56;0.60;91.90
57857;DHT22;43683;48.650;9.290;2023-12-28T02:41:24;0.50;91.80
57857;DHT22;43683;48.650;9.290;2023-12-28T02:43:51;0.60;91.70
57857;DHT22;43683;48.650;9.290;2023-12-28T02:46:16;0.70;91.60
57857;DHT22;43683;48.650;9.290;2023-12-28T02:48:42;0.90;91.40
57857;DHT22;43683;48.650;9.290;2023-12-28T02:51:07;1.10;91.10
57857;DHT22;43683;48.650;9.290;2023-12-28T02:53:33;1.30;90.80
57857;DHT22;43683;48.650;9.290;2023-12-28T02:55:58;1.50;90.50
57857;DHT22;43683;48.650;9.290;2023-12-28T02:58:24;1.60;90.30
57857;DHT22;43683;48.650;9.290;2023-12-28T03:00:49;1.70;90.20
57857;DHT22;43683;48.650;9.290;2023-12-28T03:03:15;1.70;90.00
57857;DHT22;43683;48.650;9.290;2023-12-28T03:05:40;1.80;89.80
57857;DHT22;43683;48.650;9.290;2023-12-28T03:08:06;1.70;90.00
57857;DHT22;43683;48.650;9.290;2023-12-28T03:10:32;1.70;90.20
57857;DHT22;43683;48.650;9.290;2023-12-28T03:12:58;1.60;90.10
57857;DHT22;43683;48.650;9.290;2023-12-28T03:15:23;1.60;90.20
57857;DHT22;43683;48.650;9.290;2023-12-28T03:17:49;1.50;90.40
57857;DHT22;43683;48.650;9.290;2023-12-28T03:20:15;1.50;90.40
57857;DHT22;43683;48.650;9.290;2023-12-28T03:22:40;1.60;90.40
57857;DHT22;43683;48.650;9.290;2023-12-28T03:25:06;1.80;90.00
57857;DHT22;43683;48.650;9.290;2023-12-28T03:27:32;2.00;89.50
57857;DHT22;43683;48.650;9.290;2023-12-28T03:29:57;2.30;88.90
57857;DHT22;43683;48.650;9.290;2023-12-28T03:32:23;2.60;88.00
57857;DHT22;43683;48.650;9.290;2023-12-28T03:34:48;2.80;87.10
57857;DHT22;43683;48.650;9.290;2023-12-28T03:37:14;3.10;86.40
57857;DHT22;43683;48.650;9.290;2023-12-28T03:39:39;3.20;86.00
57857;DHT22;43683;48.650;9.290;2023-12-28T03:42:05;3.30;85.70
57857;DHT22;43683;48.650;9.290;2023-12-28T03:44:30;3.40;85.60
57857;DHT22;43683;48.650;9.290;2023-12-28T03:46:56;3.60;85.30
57857;DHT22;43683;48.650;9.290;2023-12-28T03:49:21;3.70;85.40
57857;DHT22;43683;48.650;9.290;2023-12-28T03:51:48;3.70;84.70
57857;DHT22;43683;48.650;9.290;2023-12-28T03:54:18;3.70;84.80
57857;DHT22;43683;48.650;9.290;2023-12-28T03:56:44;3.70;84.70
57857;DHT22;43683;48.650;9.290;2023-12-28T03:59:10;3.70;84.70
57857;DHT22;43683;48.650;9.290;2023-12-28T04:01:35;3.60;84.60
57857;DHT22;43683;48.650;9.290;2023-12-28T04:04:01;3.60;84.80
57857;DHT22;43683;48.650;9.290;2023-12-28T04:06:27;3.60;84.90
57857;DHT22;43683;48.650;9.290;2023-12-28T04:08:52;3.50;84.90
57857;DHT22;43683;48.650;9.290;2023-12-28T04:11:18;3.50;85.00
57857;DHT22;43683;48.650;9.290;2023-12-28T04:13:44;3.50;84.60
57857;DHT22;43683;48.650;9.290;2023-12-28T04:16:13;3.50;84.60
57857;DHT22;43683;48.650;9.290;2023-12-28T04:18:42;3.60;84.30
57857;DHT22;43683;48.650;9.290;2023-12-28T04:21:12;3.70;84.10
57857;DHT22;43683;48.650;9.290;2023-12-28T04:23:39;3.80;83.80
57857;DHT22;43683;48.650;9.290;2023-12-28T04:26:04;4.00;83.30
57857;DHT22;43683;48.650;9.290;2023-12-28T04:28:30;4.30;82.40
57857;DHT22;43683;48.650;9.290;2023-12-28T04:30:55;4.50;81.80
57857;DHT22;43683;48.650;9.290;2023-12-28T04:33:21;4.60;81.40
57857;DHT22;43683;48.650;9.290;2023-12-28T04:35:47;4.70;81.20
57857;DHT22;43683;48.650;9.290;2023-12-28T04:38:13;4.90;81.00
57857;DHT22;43683;48.650;9.290;2023-12-28T04:40:38;5.00;80.80
57857;DHT22;43683;48.650;9.290;2023-12-28T04:43:04;5.10;80.40
57857;DHT22;43683;48.650;9.290;2023-12-28T04:45:30;5.20;80.10
57857;DHT22;43683;48.650;9.290;2023-12-28T04:47:55;5.20;79.80
57857;DHT22;43683;48.650;9.290;2023-12-28T04:50:21;5.30;79.80
57857;DHT22;43683;48.650;9.290;2023-12-28T04:52:46;5.30;79.60
57857;DHT22;43683;48.650;9.290;2023-12-28T04:55:12;5.40;79.20
57857;DHT22;43683;48.650;9.290;2023-12-28T04:57:37;5.50;78.90
57857;DHT22;43683;48.650;9.290;2023-12-28T05:00:04;5.60;78.40
57857;DHT22;43683;48.650;9.290;2023-12-28T05:02:30;5.80;77.80
57857;DHT22;43683;48.650;9.290;2023-12-28T05:04:55;6.00;77.30
57857;DHT22;43683;48.650;9.290;2023-12-28T05:07:21;6.10;76.80
57857;DHT22;43683;48.650;9.290;2023-12-28T05:09:46;6.20;76.50
57857;DHT22;43683;48.650;9.290;2023-12-28T05:12:12;6.20;76.20
57857;DHT22;43683;48.650;9.290;2023-12-28T05:14:37;6.30;76.10
57857;DHT22;43683;48.650;9.290;2023-12-28T05:17:03;6.30;76.20
57857;DHT22;43683;48.650;9.290;2023-12-28T05:19:29;6.30;76.30
57857;DHT22;43683;48.650;9.290;2023-12-28T05:21:55;6.20;76.20
57857;DHT22;43683;48.650;9.290;2023-12-28T05:24:20;6.10;76.40
57857;DHT22;43683;48.650;9.290;2023-12-28T05:26:46;6.20;76.30
57857;DHT22;43683;48.650;9.290;2023-12-28T05:29:11;6.10;76.30
57857;DHT22;43683;48.650;9.290;2023-12-28T05:31:37;6.10;76.30
57857;DHT22;43683;48.650;9.290;2023-12-28T05:34:02;6.10;76.20
57857;DHT22;43683;48.650;9.290;2023-12-28T05:36:28;6.10;76.10
57857;DHT22;43683;48.650;9.290;2023-12-28T05:38:54;6.10;76.00
57857;DHT22;43683;48.650;9.290;2023-12-28T05:41:19;6.10;76.00
57857;DHT22;43683;48.650;9.290;2023-12-28T05:43:45;6.00;75.80
57857;DHT22;43683;48.650;9.290;2023-12-28T05:46:10;6.10;75.60
57857;DHT22;43683;48.650;9.290;2023-12-28T05:48:36;6.30;75.00
57857;DHT22;43683;48.650;9.290;2023-12-28T05:51:01;6.50;74.20
57857;DHT22;43683;48.650;9.290;2023-12-28T05:53:27;6.80;73.50
57857;DHT22;43683;48.650;9.290;2023-12-28T05:55:54;6.90;73.20
57857;DHT22;43683;48.650;9.290;2023-12-28T05:58:20;6.80;73.20
57857;DHT22;43683;48.650;9.290;2023-12-28T06:00:45;6.70;73.40
57857;DHT22;43683;48.650;9.290;2023-12-28T06:03:14;6.60;73.50
57857;DHT22;43683;48.650;9.290;2023-12-28T06:05:40;6.60;73.50
57857;DHT22;43683;48.650;9.290;2023-12-28T06:08:06;6.50;73.30
57857;DHT22;43683;48.650;9.290;2023-12-28T06:10:31;6.60;73.30
57857;DHT22;43683;48.650;9.290;2023-12-28T06:12:57;6.60;72.90
57857;DHT22;43683;48.650;9.290;2023-12-28T06:15:22;6.60;72.60
57857;DHT22;43683;48.650;9.290;2023-12-28T06:17:48;6.60;72.40
57857;DHT22;43683;48.650;9.290;2023-12-28T06:20:13;6.70;72.30
57857;DHT22;43683;48.650;9.290;2023-12-28T06:22:39;6.80;72.00
57857;DHT22;43683;48.650;9.290;2023-12-28T06:25:05;6.90;71.80
57857;DHT22;43683;48.650;9.290;2023-12-28T06:27:31;7.00;71.60
57857;DHT22;43683;48.650;9.290;2023-12-28T06:29:57;7.00;71.50
57857;DHT22;43683;48.650;9.290;2023-12-28T06:32:22;7.10;71.30
57857;DHT22;43683;48.650;9.290;2023-12-28T06:34:48;7.20;71.00
57857;DHT22;43683;48.650;9.290;2023-12-28T06:37:14;7.30;70.70
57857;DHT22;43683;48.650;9.290;2023-12-28T06:39:39;7.40;70.40
57857;DHT22;43683;48.650;9.290;2023-12-28T06:42:05;7.40;70.40
57857;DHT22;43683;48.650;9.290;2023-12-28T06:44:30;7.50;70.20
57857;DHT22;43683;48.650;9.290;2023-12-28T06:46:56;7.60;70.00
57857;DHT22;43683;48.650;9.290;2023-12-28T06:49:21;7.50;70.20
57857;DHT22;43683;48.650;9.290;2023-12-28T06:51:47;7.40;70.50
57857;DHT22;43683;48.650;9.290;2023-12-28T06:54:13;7.40;70.60
57857;DHT22;43683;48.650;9.290;2023-12-28T06:56:40;7.30;70.60
57857;DHT22;43683;48.650;9.290;2023-12-28T06:59:05;7.40;70.50
57857;DHT22;43683;48.650;9.290;2023-12-28T07:01:31;7.50;70.40
57857;DHT22;43683;48.650;9.290;2023-12-28T07:03:56;7.50;70.30
57857;DHT22;43683;48.650;9.290;2023-12-28T07:06:23;7.50;70.30
57857;DHT22;43683;48.650;9.290;2023-12-28T07:08:49;7.60;70.20
57857;DHT22;43683;48.650;9.290;2023-12-28T07:11:15;7.70;70.10
57857;DHT22;43683;48.650;9.290;2023-12-28T07:13:40;7.80;69.90
57857;DHT22;43683;48.650;9.290;2023-12-28T07:16:06;7.90;69.70
57857;DHT22;43683;48.650;9.290;2023-12-28T07:18:33;8.00;69.50
57857;DHT22;43683;48.650;9.290;2023-12-28T07:20:58;8.20;69.40
57857;DHT22;43683;48.650;9.290;2023-12-28T07:23:24;8.30;69.20
57857;DHT22;43683;48.650;9.290;2023-12-28T07:25:49;8.40;69.20
57857;DHT22;43683;48.650;9.290;2023-12-28T07:28:15;8.50;69.20
57857;DHT22;43683;48.650;9.290;2023-12-28T07:30:41;8.50;69.00
57857;DHT22;43683;48.650;9.290;2023-12-28T07:33:06;8.60;68.90
57857;DHT22;43683;48.650;9.290;2023-12-28T07:35:32;8.60;68.70
57857;DHT22;43683;48.650;9.290;2023-12-28T07:37:57;8.60;68.60
57857;DHT22;43683;48.650;9.290;2023-12-28T07:40:23;8.70;68.50
57857;DHT22;43683;48.650;9.290;2023-12-28T07:42:48;8.70;68.50
57857;DHT22;43683;48.650;9.290;2023-12-28T07:45:14;8.70;68.50
57857;DHT22;43683;48.650;9.290;2023-12-28T07:47:39;8.70;68.60
57857;DHT22;43683;48.650;9.290;2023-12-28T07:50:05;8.70;68.60
57857;DHT22;43683;48.650;9.290;2023-12-28T07:52:31;8.70;68.60
57857;DHT22;43683;48.650;9.290;2023-12-28T07:54:57;8.70;69.30
57857;DHT22;43683;48.650;9.290;2023-12-28T07:57:24;8.80;68.50
57857;DHT22;43683;48.650;9.290;2023-12-28T07:59:50;8.70;68.40
57857;DHT22;43683;48.650;9.290;2023-12-28T08:02:15;8.70;68.50
57857;DHT22;43683;48.650;9.290;2023-12-28T08:04:41;8.70;68.70
57857;DHT22;43683;48.650;9.290;2023-12-28T08:07:06;8.70;68.90
57857;DHT22;43683;48.650;9.290;2023-12-28T08:09:34;8.60;69.00
57857;DHT22;43683;48.650;9.290;2023-12-28T08:12:00;8.60;69.10
57857;DHT22;43683;48.650;9.290;2023-12-28T08:14:26;8.60;70.00
57857;DHT22;43683;48.650;9.290;2023-12-28T08:16:51;8.60;69.40
57857;DHT22;43683;48.650;9.290;2023-12-28T08:19:17;8.60;69.70
57857;DHT22;43683;48.650;9.290;2023-12-28T08:21:43;8.50;69.90
57857;DHT22;43683;48.650;9.290;2023-12-28T08:24:08;8.50;70.00
57857;DHT22;43683;48.650;9.290;2023-12-28T08:26:34;8.50;70.20
57857;DHT22;43683;48.650;9.290;2023-12-28T08:29:00;8.50;70.30
57857;DHT22;43683;48.650;9.290;2023-12-28T08:31:25;8.50;70.40
57857;DHT22;43683;48.650;9.290;2023-12-28T08:33:51;8.40;70.40
57857;DHT22;43683;48.650;9.290;2023-12-28T08:36:16;8.50;70.60
57857;DHT22;43683;48.650;9.290;2023-12-28T08:38:43;8.50;70.60
57857;DHT22;43683;48.650;9.290;2023-12-28T08:41:21;8.50;70.70
57857;DHT22;43683;48.650;9.290;2023-12-28T08:43:47;8.50;70.70
57857;DHT22;43683;48.650;9.290;2023-12-28T08:46:13;8.50;70.90
57857;DHT22;43683;48.650;9.290;2023-12-28T08:48:40;8.50;71.00
57857;DHT22;43683;48.650;9.290;2023-12-28T08:51:06;8.60;71.20
57857;DHT22;43683;48.650;9.290;2023-12-28T08:53:32;8.60;71.20
57857;DHT22;43683;48.650;9.290;2023-12-28T08:55:57;8.70;71.10
57857;DHT22;43683;48.650;9.290;2023-12-28T08:58:23;8.70;71.00
57857;DHT22;43683;48.650;9.290;2023-12-28T09:00:48;8.70;71.10
57857;DHT22;43683;48.650;9.290;2023-12-28T09:03:14;8.80;71.10
57857;DHT22;43683;48.650;9.290;2023-12-28T09:05:40;8.90;71.20
57857;DHT22;43683;48.650;9.290;2023-12-28T09:08:05;9.00;71.10
57857;DHT22;43683;48.650;9.290;2023-12-28T09:10:31;9.00;70.90
57857;DHT22;43683;48.650;9.290;2023-12-28T09:12:57;9.10;70.90
57857;DHT22;43683;48.650;9.290;2023-12-28T09:15:22;9.20;71.00
57857;DHT22;43683;48.650;9.290;2023-12-28T09:17:48;9.20;71.10
57857;DHT22;43683;48.650;9.290;2023-12-28T09:20:13;9.20;71.30
57857;DHT22;43683;48.650;9.290;2023-12-28T09:22:40;9.10;71.40
57857;DHT22;43683;48.650;9.290;2023-12-28T09:25:05;9.10;71.30
57857;DHT22;43683;48.650;9.290;2023-12-28T09:27:31;9.10;71.30
57857;DHT22;43683;48.650;9.290;2023-12-28T09:29:56;9.20;71.30
57857;DHT22;43683;48.650;9.290;2023-12-28T09:32:22;9.10;71.20
57857;DHT22;43683;48.650;9.290;2023-12-28T09:34:47;9.20;71.40
57857;DHT22;43683;48.650;9.290;2023-12-28T09:37:13;9.20;71.40
57857;DHT22;43683;48.650;9.290;2023-12-28T09:39:39;9.30;71.30
57857;DHT22;43683;48.650;9.290;2023-12-28T09:42:06;9.30;71.90
57857;DHT22;43683;48.650;9.290;2023-12-28T09:44:38;9.40;71.00
57857;DHT22;43683;48.650;9.290;2023-12-28T09:47:05;9.50;70.90
57857;DHT22;43683;48.650;9.290;2023-12-28T09:49:32;9.60;70.60
57857;DHT22;43683;48.650;9.290;2023-12-28T09:51:59;9.70;70.40
57857;DHT22;43683;48.650;9.290;2023-12-28T09:54:24;9.80;70.30
57857;DHT22;43683;48.650;9.290;2023-12-28T09:56:50;9.90;70.10
57857;DHT22;43683;48.650;9.290;2023-12-28T09:59:16;10.00;69.90
57857;DHT22;43683;48.650;9.290;2023-12-28T10:01:43;10.10;69.70
57857;DHT22;43683;48.650;9.290;2023-12-28T10:04:11;10.20;69.60
57857;DHT22;43683;48.650;9.290;2023-12-28T10:06:36;10.30;69.40
57857;DHT22;43683;48.650;9.290;2023-12-28T10:09:02;10.40;69.20
57857;DHT22;43683;48.650;9.290;2023-12-28T10:11:29;10.60;68.90
57857;DHT22;43683;48.650;9.290;2023-12-28T10:13:54;10.80;68.50
57857;DHT22;43683;48.650;9.290;2023-12-28T10:16:20;10.90;68.70
57857;DHT22;43683;48.650;9.290;2023-12-28T10:18:46;11.10;67.50
57857;DHT22;43683;48.650;9.290;2023-12-28T10:21:12;11.20;67.20
57857;DHT22;43683;48.650;9.290;2023-12-28T10:23:38;11.40;67.00
57857;DHT22;43683;48.650;9.290;2023-12-28T10:26:07;11.40;66.70
57857;DHT22;43683;48.650;9.290;2023-12-28T10:28:34;11.60;66.30
57857;DHT22;43683;48.650;9.290;2023-12-28T10:31:00;11.70;66.20
57857;DHT22;43683;48.650;9.290;2023-12-28T10:33:26;11.80;66.20
57857;DHT22;43683;48.650;9.290;2023-12-28T10:35:52;11.90;66.20
57857;DHT22;43683;48.650;9.290;2023-12-28T10:38:19;12.00;66.20
57857;DHT22;43683;48.650;9.290;2023-12-28T10:40:45;12.10;66.00
57857;DHT22;43683;48.650;9.290;2023-12-28T10:43:15;12.10;66.10
57857;DHT22;43683;48.650;9.290;2023-12-28T10:45:42;12.20;65.90
57857;DHT22;43683;48.650;9.290;2023-12-28T10:48:12;12.20;65.80
57857;DHT22;43683;48.650;9.290;2023-12-28T10:50:42;12.20;65.70
57857;DHT22;43683;48.650;9.290;2023-12-28T10:53:37;12.30;65.20
57857;DHT22;43683;48.650;9.290;2023-12-28T10:56:20;12.30;65.00
57857;DHT22;43683;48.650;9.290;2023-12-28T11:01:32;12.40;64.90
57857;DHT22;43683;48.650;9.290;2023-12-28T11:04:18;12.50;64.50
57857;DHT22;43683;48.650;9.290;2023-12-28T11:06:46;12.50;64.10
57857;DHT22;43683;48.650;9.290;2023-12-28T11:09:12;12.50;64.20
57857;DHT22;43683;48.650;9.290;2023-12-28T11:11:41;12.50;64.60
57857;DHT22;43683;48.650;9.290;2023-12-28T11:14:08;12.50;64.70
57857;DHT22;43683;48.650;9.290;2023-12-28T11:16:34;12.30;64.70
57857;DHT22;43683;48.650;9.290;2023-12-28T11:19:03;12.30;64.70
57857;DHT22;43683;48.650;9.290;2023-12-28T11:21:30;12.10;64.90
57857;DHT22;43683;48.650;9.290;2023-12-28T11:23:55;12.00;65.20
57857;DHT22;43683;48.650;9.290;2023-12-28T11:26:22;12.00;65.30
57857;DHT22;43683;48.650;9.290;2023-12-28T11:28:48;11.90;65.40
57857;DHT22;43683;48.650;9.290;2023-12-28T11:31:15;12.00;65.20
57857;DHT22;43683;48.650;9.290;2023-12-28T11:33:50;12.10;64.70
57857;DHT22;43683;48.650;9.290;2023-12-28T11:36:25;12.20;64.20
57857;DHT22;43683;48.650;9.290;2023-12-28T11:38:53;12.10;64.20
57857;DHT22;43683;48.650;9.290;2023-12-28T11:41:22;12.10;64.40
57857;DHT22;43683;48.650;9.290;2023-12-28T11:43:54;12.00;64.40
57857;DHT22;43683;48.650;9.290;2023-12-28T11:46:22;11.90;64.40
57857;DHT22;43683;48.650;9.290;2023-12-28T11:48:48;11.80;64.60
57857;DHT22;43683;48.650;9.290;2023-12-28T11:51:14;11.70;64.80
57857;DHT22;43683;48.650;9.290;2023-12-28T11:53:41;11.60;65.00
57857;DHT22;43683;48.650;9.290;2023-12-28T11:56:08;11.60;64.90
57857;DHT22;43683;48.650;9.290;2023-12-28T11:58:36;11.60;65.00
57857;DHT22;43683;48.650;9.290;2023-12-28T12:01:02;11.60;65.10
57857;DHT22;43683;48.650;9.290;2023-12-28T12:03:28;11.60;65.20
57857;DHT22;43683;48.650;9.290;2023-12-28T12:05:55;11.60;65.10
57857;DHT22;43683;48.650;9.290;2023-12-28T12:08:22;11.60;65.10
57857;DHT22;43683;48.650;9.290;2023-12-28T12:10:48;11.70;65.40
57857;DHT22;43683;48.650;9.290;2023-12-28T12:13:14;11.70;66.10
57857;DHT22;43683;48.650;9.290;2023-12-28T12:15:39;11.80;65.40
57857;DHT22;43683;48.650;9.290;2023-12-28T12:18:05;11.80;65.50
57857;DHT22;43683;48.650;9.290;2023-12-28T12:20:31;11.80;65.60
57857;DHT22;43683;48.650;9.290;2023-12-28T12:23:01;11.70;65.70
57857;DHT22;43683;48.650;9.290;2023-12-28T12:25:28;11.70;65.90
57857;DHT22;43683;48.650;9.290;2023-12-28T12:27:54;11.70;66.10
57857;DHT22;43683;48.650;9.290;2023-12-28T12:30:19;11.60;66.40
57857;DHT22;43683;48.650;9.290;2023-12-28T12:32:45;11.60;66.70
57857;DHT22;43683;48.650;9.290;2023-12-28T12:35:11;11.60;66.90
57857;DHT22;43683;48.650;9.290;2023-12-28T12:37:37;11.50;67.20
57857;DHT22;43683;48.650;9.290;2023-12-28T12:40:06;11.50;67.40
57857;DHT22;43683;48.650;9.290;2023-12-28T12:42:33;11.50;67.60
57857;DHT22;43683;48.650;9.290;2023-12-28T12:44:58;11.50;67.90
57857;DHT22;43683;48.650;9.290;2023-12-28T12:47:24;11.50;68.10
57857;DHT22;43683;48.650;9.290;2023-12-28T12:49:55;11.50;68.60
57857;DHT22;43683;48.650;9.290;2023-12-28T12:52:21;11.40;68.90
57857;DHT22;43683;48.650;9.290;2023-12-28T12:54:56;11.40;69.00
57857;DHT22;43683;48.650;9.290;2023-12-28T12:57:22;11.40;69.30
57857;DHT22;43683;48.650;9.290;2023-12-28T12:59:48;11.40;69.40
57857;DHT22;43683;48.650;9.290;2023-12-28T13:02:15;11.20;69.90
57857;DHT22;43683;48.650;9.290;2023-12-28T13:04:42;11.10;70.20
57857;DHT22;43683;48.650;9.290;2023-12-28T13:07:07;11.00;70.60
57857;DHT22;43683;48.650;9.290;2023-12-28T13:09:34;10.90;70.80
57857;DHT22;43683;48.650;9.290;2023-12-28T13:12:00;10.90;71.20
57857;DHT22;43683;48.650;9.290;2023-12-28T13:14:26;10.90;71.30
57857;DHT22;43683;48.650;9.290;2023-12-28T13:16:52;10.90;71.60
57857;DHT22;43683;48.650;9.290;2023-12-28T13:19:20;10.80;71.70
57857;DHT22;43683;48.650;9.290;2023-12-28T13:21:45;10.80;71.60
57857;DHT22;43683;48.650;9.290;2023-12-28T13:24:11;10.80;71.70
57857;DHT22;43683;48.650;9.290;2023-12-28T13:26:36;10.80;72.00
57857;DHT22;43683;48.650;9.290;2023-12-28T13:29:02;10.80;72.20
57857;DHT22;43683;48.650;9.290;2023-12-28T13:31:28;10.80;72.30
57857;DHT22;43683;48.650;9.290;2023-12-28T13:33:53;10.90;73.00
57857;DHT22;43683;48.650;9.290;2023-12-28T13:36:19;10.90;72.20
57857;DHT22;43683;48.650;9.290;2023-12-28T13:38:44;10.90;72.40
57857;DHT22;43683;48.650;9.290;2023-12-28T13:41:09;10.90;72.50
57857;DHT22;43683;48.650;9.290;2023-12-28T13:43:35;10.90;72.70
57857;DHT22;43683;48.650;9.290;2023-12-28T13:46:01;10.70;73.30
57857;DHT22;43683;48.650;9.290;2023-12-28T13:48:32;10.50;74.20
57857;DHT22;43683;48.650;9.290;2023-12-28T13:50:57;10.40;74.90
57857;DHT22;43683;48.650;9.290;2023-12-28T13:53:23;10.30;75.40
57857;DHT22;43683;48.650;9.290;2023-12-28T13:55:48;10.20;76.80
57857;DHT22;43683;48.650;9.290;2023-12-28T13:58:14;10.10;76.70
57857;DHT22;43683;48.650;9.290;2023-12-28T14:00:39;10.00;77.20
57857;DHT22;43683;48.650;9.290;2023-12-28T14:03:05;9.90;77.80
57857;DHT22;43683;48.650;9.290;2023-12-28T14:05:30;9.80;78.40
57857;DHT22;43683;48.650;9.290;2023-12-28T14:07:57;9.70;78.90
57857;DHT22;43683;48.650;9.290;2023-12-28T14:10:22;9.70;79.40
57857;DHT22;43683;48.650;9.290;2023-12-28T14:12:48;9.70;79.70
57857;DHT22;43683;48.650;9.290;2023-12-28T14:15:13;9.70;79.80
57857;DHT22;43683;48.650;9.290;2023-12-28T14:17:42;9.80;80.00
57857;DHT22;43683;48.650;9.290;2023-12-28T14:20:08;9.80;80.20
57857;DHT22;43683;48.650;9.290;2023-12-28T14:22:40;9.70;80.60
57857;DHT22;43683;48.650;9.290;2023-12-28T14:25:06;9.70;81.00
57857;DHT22;43683;48.650;9.290;2023-12-28T14:27:32;9.70;81.30
57857;DHT22;43683;48.650;9.290;2023-12-28T14:29:58;9.70;81.60
57857;DHT22;43683;48.650;9.290;2023-12-28T14:32:24;9.50;82.00
57857;DHT22;43683;48.650;9.290;2023-12-28T14:34:50;9.40;82.50
57857;DHT22;43683;48.650;9.290;2023-12-28T14:37:15;9.40;82.90
57857;DHT22;43683;48.650;9.290;2023-12-28T14:39:41;9.30;83.20
57857;DHT22;43683;48.650;9.290;2023-12-28T14:42:08;9.30;83.60
57857;DHT22;43683;48.650;9.290;2023-12-28T14:44:33;9.20;84.00
57857;DHT22;43683;48.650;9.290;2023-12-28T14:46:59;9.20;84.40
57857;DHT22;43683;48.650;9.290;2023-12-28T14:49:24;9.20;84.80
57857;DHT22;43683;48.650;9.290;2023-12-28T14:51:50;9.20;85.10
57857;DHT22;43683;48.650;9.290;2023-12-28T14:54:15;9.10;85.40
57857;DHT22;43683;48.650;9.290;2023-12-28T14:56:41;9.10;85.70
57857;DHT22;43683;48.650;9.290;2023-12-28T14:59:06;9.00;86.00
57857;DHT22;43683;48.650;9.290;2023-12-28T15:01:32;9.00;86.30
57857;DHT22;43683;48.650;9.290;2023-12-28T15:03:57;9.00;86.60
57857;DHT22;43683;48.650;9.290;2023-12-28T15:06:23;8.90;86.80
57857;DHT22;43683;48.650;9.290;2023-12-28T15:08:48;8.90;87.20
57857;DHT22;43683;48.650;9.290;2023-12-28T15:11:14;8.90;87.50
57857;DHT22;43683;48.650;9.290;2023-12-28T15:13:40;8.90;87.70
57857;DHT22;43683;48.650;9.290;2023-12-28T15:16:06;8.90;87.90
57857;DHT22;43683;48.650;9.290;2023-12-28T15:18:32;8.80;88.20
57857;DHT22;43683;48.650;9.290;2023-12-28T15:20:57;8.80;88.40
57857;DHT22;43683;48.650;9.290;2023-12-28T15:23:24;8.80;88.70
57857;DHT22;43683;48.650;9.290;2023-12-28T15:25:49;8.80;88.80
57857;DHT22;43683;48.650;9.290;2023-12-28T15:28:15;8.80;88.90
57857;DHT22;43683;48.650;9.290;2023-12-28T15:30:40;8.80;89.10
57857;DHT22;43683;48.650;9.290;2023-12-28T15:33:06;8.70;89.40
57857;DHT22;43683;48.650;9.290;2023-12-28T15:35:31;8.60;89.70
57857;DHT22;43683;48.650;9.290;2023-12-28T15:37:57;8.50;90.00